Airfield :
LOGIN :

Register | Disclaimer

   EN    FR    IT 

 










Legend :    VFR   Marginal VFR   IFR   Intensive IFR   Very Intensive IFR
Visi :
Ceiling :
>= 8 km
>= 3000ft
5 to 8 km
1000 to 3000 ft
1500m to 5 km
500 to 1000 ft
800 to 1500m
200 to 500 ft
< 800m
< 200 ft
Symbols :   Thunderstorms  Fog  Heavy snow  Heavy precipitations  Wind > 20 kt
SIGMETs :     Misc.  Thunderstorms  Icing  Turbulence  Mountain Waves  Volcanic Ashes







- Airport Elevation : 287 ft
- Download approach charts


LFRL - Lanveoc Poulmic

CURRENT METAR :
  • 171230Z AUTO 28013KT 9999 FEW026 SCT240 20/14 Q1017 NOSIG

EXPIRED METARs :
  • 171200Z AUTO 29012KT 9999 FEW034 SCT040 BKN250 21/14 Q1017 NOSIG
  • 171130Z AUTO 29010KT 9999 FEW034 21/14 Q1017 NOSIG
  • 171100Z AUTO 29009KT 260V320 9999 BKN032 BKN240 21/13 Q1017 NOSIG
  • 171030Z AUTO 29008KT 260V320 CAVOK 21/14 Q1017 NOSIG
  • 171000Z AUTO 28009KT 250V320 9999 FEW018 20/14 Q1017 NOSIG

TAF TAF LFRL
Valid from the 17 at 12:00 until the 18 at 12:00 UTC


171100Z 1712/1812 27010KT 9999 SCT025
BECMG 1718/1720 BKN012
BECMG 1720/1722 BKN006 OVC010
TEMPO 1801/1808 4000 RA BKN004 OVC008
TEMPO 1802/1805 24010G20KT
BECMG 1808/1810 BKN010
BECMG 1810/1812 SCT015
No reported NOTAMs for that airfield.



MET'MAP, your aeronautical weather chart ! - Copyright ORBIFLY December 2007 - Disclaimer

ORBIFLY MET'MAP TEAM :

Programming & Development : Alexandra Zaïnal
Concept & Development : Baudouin d'Aumeries
Co-Development & Prog : Marc-Olivier Méhu
Technical & hardware support : Manuel Goepfert

Contact : metmap@orbifly.com




SOURCES & CREDITS :

   NOAA